48.5°F
Current conditions from King Hill
Updated every 5 minutes
 
  Wednesday September 17, 2014

Station Historical Data
Daily Summary for July 16, 2011 Units:  Both    English   Metric
« Previous Day
Next Day »
Daily Weekly Monthly Yearly Custom
  High: Low: Average:
Temperature: 85.5 °F /  29.7 °C 52.6 °F /  11.4 °C 68.7 °F /  20.4 °C
Dew Point: 65.6 °F /  18.7 °C 51.0 °F /  10.6 °C 56.9 °F /  13.8 °C
Humidity: 96% 35% 70%
Wind Speed: 4.0mph /  6.4km/h - 1.5mph /  2.4km/h
Wind Gust: 9.0mph /  14.5km/h - -
Wind- - WSW
Pressure: 30.11 in /  1019.5 hPa 30.01 in /  1016.1 hPa -
Precipitation: 0.00 in /  0 mm    
Historical Graphs
 
 
Tabular Data for July 16, 2011
Time Temperature Dew Point Pressure Wind Wind Speed Wind Gust Humidity Daily Rainfall
00:05 55.9 °F /  13.3 °C 52.1 °F /  11.2 °C 30.05in /  1017.5hPa Calm     87% 0.00in /  0mm
00:10 55.9 °F /  13.3 °C 52.4 °F /  11.3 °C 30.05in /  1017.5hPa Calm     88% 0.00in /  0mm
00:15 55.8 °F /  13.2 °C 52.3 °F /  11.3 °C 30.05in /  1017.5hPa Calm     88% 0.00in /  0mm
00:20 55.6 °F /  13.1 °C 52.1 °F /  11.2 °C 30.05in /  1017.5hPa Calm     88% 0.00in /  0mm
00:25 55.5 °F /  13.1 °C 52.3 °F /  11.3 °C 30.05in /  1017.5hPa Calm     89% 0.00in /  0mm
00:30 55.4 °F /  13 °C 52.2 °F /  11.2 °C 30.05in /  1017.5hPa Calm     89% 0.00in /  0mm
00:35 55.2 °F /  12.9 °C 52.0 °F /  11.1 °C 30.05in /  1017.5hPa Calm     89% 0.00in /  0mm
00:40 55.1 °F /  12.8 °C 51.9 °F /  11.1 °C 30.05in /  1017.5hPa Calm     89% 0.00in /  0mm
00:45 55.0 °F /  12.8 °C 52.1 °F /  11.2 °C 30.05in /  1017.5hPa Calm     90% 0.00in /  0mm
00:50 54.9 °F /  12.7 °C 52.0 °F /  11.1 °C 30.05in /  1017.5hPa Calm     90% 0.00in /  0mm
00:55 54.7 °F /  12.6 °C 51.8 °F /  11 °C 30.05in /  1017.5hPa Calm     90% 0.00in /  0mm
01:00 54.6 °F /  12.6 °C 51.7 °F /  10.9 °C 30.05in /  1017.5hPa Calm     90% 0.00in /  0mm
01:05 54.4 °F /  12.4 °C 51.5 °F /  10.8 °C 30.05in /  1017.5hPa Calm     90% 0.00in /  0mm
01:10 54.4 °F /  12.4 °C 51.5 °F /  10.8 °C 30.05in /  1017.5hPa Calm     90% 0.00in /  0mm
01:15 54.4 °F /  12.4 °C 51.8 °F /  11 °C 30.05in /  1017.5hPa Calm     91% 0.00in /  0mm
01:20 54.2 °F /  12.3 °C 51.6 °F /  10.9 °C 30.05in /  1017.5hPa Calm     91% 0.00in /  0mm
01:25 54.1 °F /  12.3 °C 51.5 °F /  10.8 °C 30.05in /  1017.5hPa Calm     91% 0.00in /  0mm
01:30 54.2 °F /  12.3 °C 51.6 °F /  10.9 °C 30.06in /  1017.8hPa Calm     91% 0.00in /  0mm
01:40 54.2 °F /  12.3 °C 51.9 °F /  11.1 °C 30.06in /  1017.8hPa Calm     92% 0.00in /  0mm
01:45 54.1 °F /  12.3 °C 51.8 °F /  11 °C 30.06in /  1017.8hPa Calm     92% 0.00in /  0mm
01:50 54.0 °F /  12.2 °C 51.7 °F /  10.9 °C 30.06in /  1017.8hPa Calm     92% 0.00in /  0mm
01:55 53.9 °F /  12.2 °C 51.6 °F /  10.9 °C 30.06in /  1017.8hPa Calm     92% 0.00in /  0mm
02:00 53.8 °F /  12.1 °C 51.5 °F /  10.8 °C 30.06in /  1017.8hPa Calm     92% 0.00in /  0mm
02:05 53.7 °F /  12.1 °C 51.4 °F /  10.8 °C 30.06in /  1017.8hPa Calm     92% 0.00in /  0mm
02:10 53.7 °F /  12.1 °C 51.4 °F /  10.8 °C 30.06in /  1017.8hPa Calm     92% 0.00in /  0mm
02:15 53.7 °F /  12.1 °C 51.4 °F /  10.8 °C 30.06in /  1017.8hPa Calm     92% 0.00in /  0mm
02:20 53.7 °F /  12.1 °C 51.4 °F /  10.8 °C 30.06in /  1017.8hPa Calm     92% 0.00in /  0mm
02:25 53.6 °F /  12 °C 51.3 °F /  10.7 °C 30.06in /  1017.8hPa Calm     92% 0.00in /  0mm
02:30 53.5 °F /  11.9 °C 51.2 °F /  10.7 °C 30.06in /  1017.8hPa Calm     92% 0.00in /  0mm
02:35 53.6 °F /  12 °C 51.6 °F /  10.9 °C 30.06in /  1017.8hPa Calm     93% 0.00in /  0mm
02:40 53.5 °F /  11.9 °C 51.5 °F /  10.8 °C 30.06in /  1017.8hPa Calm     93% 0.00in /  0mm
02:45 53.4 °F /  11.9 °C 51.4 °F /  10.8 °C 30.06in /  1017.8hPa Calm     93% 0.00in /  0mm
02:50 53.4 °F /  11.9 °C 51.4 °F /  10.8 °C 30.07in /  1018.2hPa Calm     93% 0.00in /  0mm
02:55 53.3 °F /  11.8 °C 51.3 °F /  10.7 °C 30.06in /  1017.8hPa Calm     93% 0.00in /  0mm
03:05 53.2 °F /  11.8 °C 51.2 °F /  10.7 °C 30.07in /  1018.2hPa Calm     93% 0.00in /  0mm
03:10 53.2 °F /  11.8 °C 51.2 °F /  10.7 °C 30.06in /  1017.8hPa Calm     93% 0.00in /  0mm
03:20 53.0 °F /  11.7 °C 51.0 °F /  10.6 °C 30.06in /  1017.8hPa Calm     93% 0.00in /  0mm
03:25 53.0 °F /  11.7 °C 51.0 °F /  10.6 °C 30.06in /  1017.8hPa Calm     93% 0.00in /  0mm
03:30 53.0 °F /  11.7 °C 51.3 °F /  10.7 °C 30.06in /  1017.8hPa Calm     94% 0.00in /  0mm
03:35 53.0 °F /  11.7 °C 51.3 °F /  10.7 °C 30.07in /  1018.2hPa Calm     94% 0.00in /  0mm
03:40 53.0 °F /  11.7 °C 51.3 °F /  10.7 °C 30.06in /  1017.8hPa Calm     94% 0.00in /  0mm
03:45 53.0 °F /  11.7 °C 51.3 °F /  10.7 °C 30.07in /  1018.2hPa Calm     94% 0.00in /  0mm
03:50 53.0 °F /  11.7 °C 51.3 °F /  10.7 °C 30.07in /  1018.2hPa Calm     94% 0.00in /  0mm
03:55 53.0 °F /  11.7 °C 51.3 °F /  10.7 °C 30.07in /  1018.2hPa Calm     94% 0.00in /  0mm
04:00 53.0 °F /  11.7 °C 51.3 °F /  10.7 °C 30.07in /  1018.2hPa Calm     94% 0.00in /  0mm
04:05 53.0 °F /  11.7 °C 51.3 °F /  10.7 °C 30.06in /  1017.8hPa Calm     94% 0.00in /  0mm
04:10 53.1 °F /  11.7 °C 51.7 °F /  10.9 °C 30.07in /  1018.2hPa Calm     95% 0.00in /  0mm
04:15 53.2 °F /  11.8 °C 51.8 °F /  11 °C 30.07in /  1018.2hPa Calm     95% 0.00in /  0mm
04:20 53.3 °F /  11.8 °C 51.9 °F /  11.1 °C 30.07in /  1018.2hPa Calm     95% 0.00in /  0mm
04:25 53.2 °F /  11.8 °C 51.8 °F /  11 °C 30.07in /  1018.2hPa Calm     95% 0.00in /  0mm
04:30 53.1 °F /  11.7 °C 51.7 °F /  10.9 °C 30.07in /  1018.2hPa Calm     95% 0.00in /  0mm
04:35 53.1 °F /  11.7 °C 51.7 °F /  10.9 °C 30.07in /  1018.2hPa Calm     95% 0.00in /  0mm
04:40 53.2 °F /  11.8 °C 51.8 °F /  11 °C 30.07in /  1018.2hPa Calm     95% 0.00in /  0mm
04:45 53.2 °F /  11.8 °C 51.8 °F /  11 °C 30.07in /  1018.2hPa Calm     95% 0.00in /  0mm
04:50 53.1 °F /  11.7 °C 51.7 °F /  10.9 °C 30.07in /  1018.2hPa Calm     95% 0.00in /  0mm
04:55 53.1 °F /  11.7 °C 51.7 °F /  10.9 °C 30.07in /  1018.2hPa Calm     95% 0.00in /  0mm
05:00 53.0 °F /  11.7 °C 51.6 °F /  10.9 °C 30.07in /  1018.2hPa Calm     95% 0.00in /  0mm
05:10 52.9 °F /  11.6 °C 51.5 °F /  10.8 °C 30.08in /  1018.5hPa Calm     95% 0.00in /  0mm
05:15 52.7 °F /  11.5 °C 51.3 °F /  10.7 °C 30.07in /  1018.2hPa Calm     95% 0.00in /  0mm
05:20 52.6 °F /  11.4 °C 51.2 °F /  10.7 °C 30.08in /  1018.5hPa Calm     95% 0.00in /  0mm
05:25 52.6 °F /  11.4 °C 51.2 °F /  10.7 °C 30.08in /  1018.5hPa Calm     95% 0.00in /  0mm
05:30 52.6 °F /  11.4 °C 51.2 °F /  10.7 °C 30.08in /  1018.5hPa Calm     95% 0.00in /  0mm
05:35 52.7 °F /  11.5 °C 51.3 °F /  10.7 °C 30.08in /  1018.5hPa Calm     95% 0.00in /  0mm
05:40 52.8 °F /  11.6 °C 51.4 °F /  10.8 °C 30.08in /  1018.5hPa Calm     95% 0.00in /  0mm
05:45 52.8 °F /  11.6 °C 51.4 °F /  10.8 °C 30.08in /  1018.5hPa Calm     95% 0.00in /  0mm
05:50 52.8 °F /  11.6 °C 51.4 °F /  10.8 °C 30.08in /  1018.5hPa Calm     95% 0.00in /  0mm
05:55 52.8 °F /  11.6 °C 51.4 °F /  10.8 °C 30.09in /  1018.8hPa Calm     95% 0.00in /  0mm
06:00 53.1 °F /  11.7 °C 51.7 °F /  10.9 °C 30.09in /  1018.8hPa Calm     95% 0.00in /  0mm
06:05 53.3 °F /  11.8 °C 51.9 °F /  11.1 °C 30.09in /  1018.8hPa Calm     95% 0.00in /  0mm
06:10 53.5 °F /  11.9 °C 52.1 °F /  11.2 °C 30.09in /  1018.8hPa Calm     95% 0.00in /  0mm
06:15 53.7 °F /  12.1 °C 52.3 °F /  11.3 °C 30.09in /  1018.8hPa Calm     95% 0.00in /  0mm
06:20 53.9 °F /  12.2 °C 52.8 °F /  11.6 °C 30.09in /  1018.8hPa Calm     96% 0.00in /  0mm
06:25 54.1 °F /  12.3 °C 53.0 °F /  11.7 °C 30.09in /  1018.8hPa Calm     96% 0.00in /  0mm
06:30 54.4 °F /  12.4 °C 53.0 °F /  11.7 °C 30.10in /  1019.2hPa Calm     95% 0.00in /  0mm
06:35 54.6 °F /  12.6 °C 53.5 °F /  11.9 °C 30.10in /  1019.2hPa Calm     96% 0.00in /  0mm
06:40 55.1 °F /  12.8 °C 54.0 °F /  12.2 °C 30.10in /  1019.2hPa Calm     96% 0.00in /  0mm
06:45 55.5 °F /  13.1 °C 54.4 °F /  12.4 °C 30.10in /  1019.2hPa Calm     96% 0.00in /  0mm
06:50 56.0 °F /  13.3 °C 54.9 °F /  12.7 °C 30.10in /  1019.2hPa Calm     96% 0.00in /  0mm
06:55 56.4 °F /  13.6 °C 55.3 °F /  12.9 °C 30.10in /  1019.2hPa Calm     96% 0.00in /  0mm
07:00 56.6 °F /  13.7 °C 55.5 °F /  13.1 °C 30.10in /  1019.2hPa Calm     96% 0.00in /  0mm
07:05 56.9 °F /  13.8 °C 55.8 °F /  13.2 °C 30.10in /  1019.2hPa Calm   1.0mph /  1.6km/h 96% 0.00in /  0mm
07:10 57.2 °F /  14 °C 56.1 °F /  13.4 °C 30.10in /  1019.2hPa Calm   1.0mph /  1.6km/h 96% 0.00in /  0mm
07:15 57.7 °F /  14.3 °C 56.6 °F /  13.7 °C 30.10in /  1019.2hPa Calm     96% 0.00in /  0mm
07:20 58.2 °F /  14.6 °C 57.1 °F /  13.9 °C 30.10in /  1019.2hPa Calm     96% 0.00in /  0mm
07:25 58.7 °F /  14.8 °C 57.6 °F /  14.2 °C 30.10in /  1019.2hPa Calm     96% 0.00in /  0mm
07:30 59.0 °F /  15 °C 57.9 °F /  14.4 °C 30.10in /  1019.2hPa Calm     96% 0.00in /  0mm
07:35 59.3 °F /  15.2 °C 57.9 °F /  14.4 °C 30.10in /  1019.2hPa Calm     95% 0.00in /  0mm
07:40 59.6 °F /  15.3 °C 58.2 °F /  14.6 °C 30.10in /  1019.2hPa Calm     95% 0.00in /  0mm
07:45 60.1 °F /  15.6 °C 58.7 °F /  14.8 °C 30.11in /  1019.5hPa Calm     95% 0.00in /  0mm
07:50 60.3 °F /  15.7 °C 58.3 °F /  14.6 °C 30.10in /  1019.2hPa Calm     93% 0.00in /  0mm
07:55 60.9 °F /  16.1 °C 58.9 °F /  14.9 °C 30.11in /  1019.5hPa Calm     93% 0.00in /  0mm
08:00 61.5 °F /  16.4 °C 58.5 °F /  14.7 °C 30.11in /  1019.5hPa Calm   1.0mph /  1.6km/h 90% 0.00in /  0mm
08:10 63.4 °F /  17.4 °C 57.8 °F /  14.3 °C 30.11in /  1019.5hPa Calm   4.0mph /  6.4km/h 82% 0.00in /  0mm
08:15 64.8 °F /  18.2 °C 58.8 °F /  14.9 °C 30.11in /  1019.5hPa Calm   1.0mph /  1.6km/h 81% 0.00in /  0mm
08:20 66.1 °F /  18.9 °C 58.7 °F /  14.8 °C 30.11in /  1019.5hPa Calm   1.0mph /  1.6km/h 77% 0.00in /  0mm
08:25 67.5 °F /  19.7 °C 61.5 °F /  16.4 °C 30.11in /  1019.5hPa Calm   1.0mph /  1.6km/h 81% 0.00in /  0mm
08:30 68.5 °F /  20.3 °C 60.3 °F /  15.7 °C 30.11in /  1019.5hPa Calm   1.0mph /  1.6km/h 75% 0.00in /  0mm
08:35 69.6 °F /  20.9 °C 61.3 °F /  16.3 °C 30.11in /  1019.5hPa Calm   1.0mph /  1.6km/h 75% 0.00in /  0mm
08:40 70.6 °F /  21.4 °C 61.5 °F /  16.4 °C 30.11in /  1019.5hPa Calm   1.0mph /  1.6km/h 73% 0.00in /  0mm
08:45 71.4 °F /  21.9 °C 60.7 °F /  15.9 °C 30.11in /  1019.5hPa Calm   1.0mph /  1.6km/h 69% 0.00in /  0mm
08:50 72.0 °F /  22.2 °C 59.2 °F /  15.1 °C 30.11in /  1019.5hPa Calm   1.0mph /  1.6km/h 64% 0.00in /  0mm
08:55 72.2 °F /  22.3 °C 59.8 °F /  15.4 °C 30.11in /  1019.5hPa Calm   1.0mph /  1.6km/h 65% 0.00in /  0mm
09:00 72.5 °F /  22.5 °C 59.6 °F /  15.3 °C 30.11in /  1019.5hPa Calm   1.0mph /  1.6km/h 64% 0.00in /  0mm
09:05 72.8 °F /  22.7 °C 59.5 °F /  15.3 °C 30.11in /  1019.5hPa Calm   1.0mph /  1.6km/h 63% 0.00in /  0mm
09:10 73.5 °F /  23.1 °C 61.5 °F /  16.4 °C 30.11in /  1019.5hPa Calm   1.0mph /  1.6km/h 66% 0.00in /  0mm
09:15 74.0 °F /  23.3 °C 61.1 °F /  16.2 °C 30.11in /  1019.5hPa Calm   4.0mph /  6.4km/h 64% 0.00in /  0mm
09:20 74.6 °F /  23.7 °C 60.7 °F /  15.9 °C 30.10in /  1019.2hPa Calm   4.0mph /  6.4km/h 62% 0.00in /  0mm
09:25 75.1 °F /  23.9 °C 61.7 °F /  16.5 °C 30.11in /  1019.5hPa Calm   4.0mph /  6.4km/h 63% 0.00in /  0mm
09:30 75.1 °F /  23.9 °C 60.3 °F /  15.7 °C 30.11in /  1019.5hPa Calm   5.0mph /  8km/h 60% 0.00in /  0mm
09:35 74.6 °F /  23.7 °C 58.9 °F /  14.9 °C 30.10in /  1019.2hPa Calm   5.0mph /  8km/h 58% 0.00in /  0mm
09:40 75.1 °F /  23.9 °C 61.2 °F /  16.2 °C 30.10in /  1019.2hPa Calm   4.0mph /  6.4km/h 62% 0.00in /  0mm
09:45 75.8 °F /  24.3 °C 62.3 °F /  16.8 °C 30.10in /  1019.2hPa Calm   1.0mph /  1.6km/h 63% 0.00in /  0mm
09:50 75.8 °F /  24.3 °C 59.5 °F /  15.3 °C 30.10in /  1019.2hPa Calm   4.0mph /  6.4km/h 57% 0.00in /  0mm
09:55 75.8 °F /  24.3 °C 61.9 °F /  16.6 °C 30.10in /  1019.2hPa Calm   4.0mph /  6.4km/h 62% 0.00in /  0mm
10:00 75.6 °F /  24.2 °C 59.8 °F /  15.4 °C 30.10in /  1019.2hPa Calm   1.0mph /  1.6km/h 58% 0.00in /  0mm
10:05 75.5 °F /  24.2 °C 60.2 °F /  15.7 °C 30.10in /  1019.2hPa Calm   1.0mph /  1.6km/h 59% 0.00in /  0mm
10:10 76.0 °F /  24.4 °C 60.2 °F /  15.7 °C 30.10in /  1019.2hPa Calm   1.0mph /  1.6km/h 58% 0.00in /  0mm
10:15 76.1 °F /  24.5 °C 60.8 °F /  16 °C 30.10in /  1019.2hPa Calm   1.0mph /  1.6km/h 59% 0.00in /  0mm
10:20 76.1 °F /  24.5 °C 58.8 °F /  14.9 °C 30.10in /  1019.2hPa Calm   1.0mph /  1.6km/h 55% 0.00in /  0mm
10:25 76.7 °F /  24.8 °C 60.3 °F /  15.7 °C 30.10in /  1019.2hPa Calm   1.0mph /  1.6km/h 57% 0.00in /  0mm
10:30 77.7 °F /  25.4 °C 59.8 °F /  15.4 °C 30.10in /  1019.2hPa SW 1.0mph /  1.6km/h 5.0mph /  8km/h 54% 0.00in /  0mm
10:35 77.5 °F /  25.3 °C 58.5 °F /  14.7 °C 30.10in /  1019.2hPa Calm   5.0mph /  8km/h 52% 0.00in /  0mm
10:40 77.0 °F /  25 °C 58.1 °F /  14.5 °C 30.10in /  1019.2hPa Calm   1.0mph /  1.6km/h 52% 0.00in /  0mm
10:45 76.9 °F /  24.9 °C 59.0 °F /  15 °C 30.10in /  1019.2hPa Calm   1.0mph /  1.6km/h 54% 0.00in /  0mm
10:50 77.1 °F /  25.1 °C 60.7 °F /  15.9 °C 30.10in /  1019.2hPa WSW 2.0mph /  3.2km/h 4.0mph /  6.4km/h 57% 0.00in /  0mm
10:55 77.4 °F /  25.2 °C 60.5 °F /  15.8 °C 30.10in /  1019.2hPa Calm   4.0mph /  6.4km/h 56% 0.00in /  0mm
11:00 77.9 °F /  25.5 °C 60.5 °F /  15.8 °C 30.10in /  1019.2hPa Calm   1.0mph /  1.6km/h 55% 0.00in /  0mm
11:05 78.0 °F /  25.6 °C 59.0 °F /  15 °C 30.10in /  1019.2hPa Calm   5.0mph /  8km/h 52% 0.00in /  0mm
11:10 78.1 °F /  25.6 °C 58.5 °F /  14.7 °C 30.09in /  1018.8hPa Calm   5.0mph /  8km/h 51% 0.00in /  0mm
11:15 78.4 °F /  25.8 °C 61.9 °F /  16.6 °C 30.09in /  1018.8hPa Calm   3.0mph /  4.8km/h 57% 0.00in /  0mm
11:20 78.7 °F /  25.9 °C 58.5 °F /  14.7 °C 30.09in /  1018.8hPa SW 1.0mph /  1.6km/h 4.0mph /  6.4km/h 50% 0.00in /  0mm
11:25 78.6 °F /  25.9 °C 59.5 °F /  15.3 °C 30.09in /  1018.8hPa Calm   4.0mph /  6.4km/h 52% 0.00in /  0mm
11:30 78.7 °F /  25.9 °C 58.0 °F /  14.4 °C 30.09in /  1018.8hPa Calm   2.0mph /  3.2km/h 49% 0.00in /  0mm
11:35 78.9 °F /  26.1 °C 60.3 °F /  15.7 °C 30.09in /  1018.8hPa Calm   2.0mph /  3.2km/h 53% 0.00in /  0mm
11:40 79.1 °F /  26.2 °C 60.0 °F /  15.6 °C 30.09in /  1018.8hPa Calm   1.0mph /  1.6km/h 52% 0.00in /  0mm
11:45 79.3 °F /  26.3 °C 55.5 °F /  13.1 °C 30.09in /  1018.8hPa SW 1.0mph /  1.6km/h 5.0mph /  8km/h 44% 0.00in /  0mm
11:50 79.3 °F /  26.3 °C 58.5 °F /  14.7 °C 30.09in /  1018.8hPa Calm   5.0mph /  8km/h 49% 0.00in /  0mm
11:55 79.6 °F /  26.4 °C 56.4 °F /  13.6 °C 30.08in /  1018.5hPa Calm   3.0mph /  4.8km/h 45% 0.00in /  0mm
12:00 80.1 °F /  26.7 °C 58.7 °F /  14.8 °C 30.08in /  1018.5hPa Calm   1.0mph /  1.6km/h 48% 0.00in /  0mm
12:05 80.7 °F /  27.1 °C 59.8 °F /  15.4 °C 30.08in /  1018.5hPa Calm   1.0mph /  1.6km/h 49% 0.00in /  0mm
12:10 81.2 °F /  27.3 °C 63.5 °F /  17.5 °C 30.09in /  1018.8hPa Calm   1.0mph /  1.6km/h 55% 0.00in /  0mm
12:15 81.3 °F /  27.4 °C 58.0 °F /  14.4 °C 30.09in /  1018.8hPa SW 1.0mph /  1.6km/h 4.0mph /  6.4km/h 45% 0.00in /  0mm
12:20 80.9 °F /  27.2 °C 59.4 °F /  15.2 °C 30.08in /  1018.5hPa Calm   5.0mph /  8km/h 48% 0.00in /  0mm
12:25 80.9 °F /  27.2 °C 58.2 °F /  14.6 °C 30.08in /  1018.5hPa Calm   5.0mph /  8km/h 46% 0.00in /  0mm
12:30 80.8 °F /  27.1 °C 62.1 °F /  16.7 °C 30.08in /  1018.5hPa Calm   5.0mph /  8km/h 53% 0.00in /  0mm
12:35 81.2 °F /  27.3 °C 62.5 °F /  16.9 °C 30.08in /  1018.5hPa SW 1.0mph /  1.6km/h 5.0mph /  8km/h 53% 0.00in /  0mm
12:40 81.5 °F /  27.5 °C 62.7 °F /  17.1 °C 30.08in /  1018.5hPa Calm   6.0mph /  9.7km/h 53% 0.00in /  0mm
12:45 81.5 °F /  27.5 °C 62.7 °F /  17.1 °C 30.08in /  1018.5hPa WNW 2.0mph /  3.2km/h 7.0mph /  11.3km/h 53% 0.00in /  0mm
12:50 81.6 °F /  27.6 °C 61.2 °F /  16.2 °C 30.08in /  1018.5hPa Calm   7.0mph /  11.3km/h 50% 0.00in /  0mm
12:55 81.6 °F /  27.6 °C 64.9 °F /  18.3 °C 30.08in /  1018.5hPa West 1.0mph /  1.6km/h 5.0mph /  8km/h 57% 0.00in /  0mm
13:05 81.6 °F /  27.6 °C 64.4 °F /  18 °C 30.07in /  1018.2hPa SW 1.0mph /  1.6km/h 6.0mph /  9.7km/h 56% 0.00in /  0mm
13:10 81.5 °F /  27.5 °C 65.3 °F /  18.5 °C 30.07in /  1018.2hPa WSW 1.0mph /  1.6km/h 6.0mph /  9.7km/h 58% 0.00in /  0mm
13:15 82.1 °F /  27.8 °C 62.8 °F /  17.1 °C 30.07in /  1018.2hPa Calm   5.0mph /  8km/h 52% 0.00in /  0mm
13:20 82.1 °F /  27.8 °C 59.3 °F /  15.2 °C 30.07in /  1018.2hPa Calm   1.0mph /  1.6km/h 46% 0.00in /  0mm
13:25 82.3 °F /  27.9 °C 62.9 °F /  17.2 °C 30.07in /  1018.2hPa WNW 1.0mph /  1.6km/h 6.0mph /  9.7km/h 52% 0.00in /  0mm
13:30 82.4 °F /  28 °C 59.0 °F /  15 °C 30.07in /  1018.2hPa Calm   8.0mph /  12.9km/h 45% 0.00in /  0mm
13:35 82.4 °F /  28 °C 60.8 °F /  16 °C 30.07in /  1018.2hPa West 1.0mph /  1.6km/h 8.0mph /  12.9km/h 48% 0.00in /  0mm
13:40 82.4 °F /  28 °C 60.8 °F /  16 °C 30.07in /  1018.2hPa Calm   5.0mph /  8km/h 48% 0.00in /  0mm
13:45 82.5 °F /  28.1 °C 59.7 °F /  15.4 °C 30.07in /  1018.2hPa West 1.0mph /  1.6km/h 3.0mph /  4.8km/h 46% 0.00in /  0mm
13:50 82.7 °F /  28.2 °C 60.4 °F /  15.8 °C 30.07in /  1018.2hPa Calm   6.0mph /  9.7km/h 47% 0.00in /  0mm
13:55 83.0 °F /  28.3 °C 61.9 °F /  16.6 °C 30.07in /  1018.2hPa Calm   6.0mph /  9.7km/h 49% 0.00in /  0mm
14:00 83.1 °F /  28.4 °C 62.0 °F /  16.7 °C 30.07in /  1018.2hPa Calm   5.0mph /  8km/h 49% 0.00in /  0mm
14:05 83.1 °F /  28.4 °C 63.7 °F /  17.6 °C 30.06in /  1017.8hPa Calm   4.0mph /  6.4km/h 52% 0.00in /  0mm
14:10 83.0 °F /  28.3 °C 61.3 °F /  16.3 °C 30.06in /  1017.8hPa SW 1.0mph /  1.6km/h 5.0mph /  8km/h 48% 0.00in /  0mm
14:15 83.1 °F /  28.4 °C 59.6 °F /  15.3 °C 30.06in /  1017.8hPa WNW 2.0mph /  3.2km/h 5.0mph /  8km/h 45% 0.00in /  0mm
14:20 83.0 °F /  28.3 °C 58.2 °F /  14.6 °C 30.06in /  1017.8hPa Calm   5.0mph /  8km/h 43% 0.00in /  0mm
14:25 83.2 °F /  28.4 °C 62.1 °F /  16.7 °C 30.06in /  1017.8hPa WNW 2.0mph /  3.2km/h 6.0mph /  9.7km/h 49% 0.00in /  0mm
14:30 83.3 °F /  28.5 °C 58.5 °F /  14.7 °C 30.06in /  1017.8hPa West 1.0mph /  1.6km/h 6.0mph /  9.7km/h 43% 0.00in /  0mm
14:35 83.0 °F /  28.3 °C 58.9 °F /  14.9 °C 30.06in /  1017.8hPa West 2.0mph /  3.2km/h 7.0mph /  11.3km/h 44% 0.00in /  0mm
14:40 82.6 °F /  28.1 °C 58.5 °F /  14.7 °C 30.05in /  1017.5hPa Calm   7.0mph /  11.3km/h 44% 0.00in /  0mm
14:50 82.9 °F /  28.3 °C 61.2 °F /  16.2 °C 30.05in /  1017.5hPa WSW 1.0mph /  1.6km/h 7.0mph /  11.3km/h 48% 0.00in /  0mm
14:55 83.2 °F /  28.4 °C 59.1 °F /  15.1 °C 30.05in /  1017.5hPa West 3.0mph /  4.8km/h 8.0mph /  12.9km/h 44% 0.00in /  0mm
15:00 83.4 °F /  28.6 °C 62.3 °F /  16.8 °C 30.05in /  1017.5hPa Calm   8.0mph /  12.9km/h 49% 0.00in /  0mm
15:05 83.3 °F /  28.5 °C 59.1 °F /  15.1 °C 30.05in /  1017.5hPa WNW 1.0mph /  1.6km/h 9.0mph /  14.5km/h 44% 0.00in /  0mm
15:10 83.3 °F /  28.5 °C 57.2 °F /  14 °C 30.05in /  1017.5hPa WNW 4.0mph /  6.4km/h 9.0mph /  14.5km/h 41% 0.00in /  0mm
15:15 83.0 °F /  28.3 °C 61.3 °F /  16.3 °C 30.05in /  1017.5hPa Calm   8.0mph /  12.9km/h 48% 0.00in /  0mm
15:20 83.0 °F /  28.3 °C 58.9 °F /  14.9 °C 30.04in /  1017.2hPa Calm   7.0mph /  11.3km/h 44% 0.00in /  0mm
15:30 83.5 °F /  28.6 °C 58.7 °F /  14.8 °C 30.04in /  1017.2hPa WNW 1.0mph /  1.6km/h 7.0mph /  11.3km/h 43% 0.00in /  0mm
15:35 83.6 °F /  28.7 °C 55.3 °F /  12.9 °C 30.04in /  1017.2hPa Calm   5.0mph /  8km/h 38% 0.00in /  0mm
15:40 83.8 °F /  28.8 °C 55.5 °F /  13.1 °C 30.04in /  1017.2hPa WNW 4.0mph /  6.4km/h 7.0mph /  11.3km/h 38% 0.00in /  0mm
15:45 83.9 °F /  28.8 °C 59.7 °F /  15.4 °C 30.04in /  1017.2hPa NW 3.0mph /  4.8km/h 7.0mph /  11.3km/h 44% 0.00in /  0mm
15:50 83.9 °F /  28.8 °C 54.1 °F /  12.3 °C 30.04in /  1017.2hPa NW 2.0mph /  3.2km/h 7.0mph /  11.3km/h 36% 0.00in /  0mm
15:55 83.9 °F /  28.8 °C 58.4 °F /  14.7 °C 30.04in /  1017.2hPa WSW 1.0mph /  1.6km/h 7.0mph /  11.3km/h 42% 0.00in /  0mm
16:00 83.9 °F /  28.8 °C 57.7 °F /  14.3 °C 30.04in /  1017.2hPa West 1.0mph /  1.6km/h 5.0mph /  8km/h 41% 0.00in /  0mm
16:05 84.0 °F /  28.9 °C 61.0 °F /  16.1 °C 30.04in /  1017.2hPa Calm   4.0mph /  6.4km/h 46% 0.00in /  0mm
16:10 84.5 °F /  29.2 °C 58.9 °F /  14.9 °C 30.04in /  1017.2hPa Calm   4.0mph /  6.4km/h 42% 0.00in /  0mm
16:15 84.7 °F /  29.3 °C 60.4 °F /  15.8 °C 30.04in /  1017.2hPa Calm   5.0mph /  8km/h 44% 0.00in /  0mm
16:20 84.8 °F /  29.3 °C 58.5 °F /  14.7 °C 30.04in /  1017.2hPa Calm   5.0mph /  8km/h 41% 0.00in /  0mm
16:25 84.7 °F /  29.3 °C 57.0 °F /  13.9 °C 30.04in /  1017.2hPa Calm   1.0mph /  1.6km/h 39% 0.00in /  0mm
16:30 84.7 °F /  29.3 °C 57.0 °F /  13.9 °C 30.03in /  1016.8hPa Calm   7.0mph /  11.3km/h 39% 0.00in /  0mm
16:35 84.5 °F /  29.2 °C 58.3 °F /  14.6 °C 30.03in /  1016.8hPa Calm   7.0mph /  11.3km/h 41% 0.00in /  0mm
16:40 84.4 °F /  29.1 °C 58.2 °F /  14.6 °C 30.03in /  1016.8hPa Calm   4.0mph /  6.4km/h 41% 0.00in /  0mm
16:45 84.7 °F /  29.3 °C 54.8 °F /  12.7 °C 30.03in /  1016.8hPa Calm   4.0mph /  6.4km/h 36% 0.00in /  0mm
16:50 85.2 °F /  29.6 °C 56.0 °F /  13.3 °C 30.03in /  1016.8hPa Calm   1.0mph /  1.6km/h 37% 0.00in /  0mm
16:55 85.5 °F /  29.7 °C 61.1 °F /  16.2 °C 30.03in /  1016.8hPa Calm   1.0mph /  1.6km/h 44% 0.00in /  0mm
17:00 85.5 °F /  29.7 °C 59.8 °F /  15.4 °C 30.03in /  1016.8hPa Calm   1.0mph /  1.6km/h 42% 0.00in /  0mm
17:05 85.4 °F /  29.7 °C 56.9 °F /  13.8 °C 30.03in /  1016.8hPa Calm   5.0mph /  8km/h 38% 0.00in /  0mm
17:10 85.2 °F /  29.6 °C 54.5 °F /  12.5 °C 30.02in /  1016.5hPa Calm   5.0mph /  8km/h 35% 0.00in /  0mm
17:15 84.8 °F /  29.3 °C 55.7 °F /  13.2 °C 30.02in /  1016.5hPa Calm   5.0mph /  8km/h 37% 0.00in /  0mm
17:20 84.4 °F /  29.1 °C 57.5 °F /  14.2 °C 30.02in /  1016.5hPa Calm   5.0mph /  8km/h 40% 0.00in /  0mm
17:25 84.6 °F /  29.2 °C 57.0 °F /  13.9 °C 30.02in /  1016.5hPa Calm   3.0mph /  4.8km/h 39% 0.00in /  0mm
17:30 84.9 °F /  29.4 °C 55.0 °F /  12.8 °C 30.02in /  1016.5hPa SW 1.0mph /  1.6km/h 4.0mph /  6.4km/h 36% 0.00in /  0mm
17:35 85.0 °F /  29.4 °C 58.0 °F /  14.4 °C 30.02in /  1016.5hPa Calm   4.0mph /  6.4km/h 40% 0.00in /  0mm
17:40 84.7 °F /  29.3 °C 57.0 °F /  13.9 °C 30.02in /  1016.5hPa SSW 2.0mph /  3.2km/h 6.0mph /  9.7km/h 39% 0.00in /  0mm
17:45 83.9 °F /  28.8 °C 59.7 °F /  15.4 °C 30.02in /  1016.5hPa Calm   6.0mph /  9.7km/h 44% 0.00in /  0mm
17:50 83.4 °F /  28.6 °C 56.6 °F /  13.7 °C 30.02in /  1016.5hPa Calm   3.0mph /  4.8km/h 40% 0.00in /  0mm
17:55 83.4 °F /  28.6 °C 57.9 °F /  14.4 °C 30.02in /  1016.5hPa Calm   3.0mph /  4.8km/h 42% 0.00in /  0mm
18:00 83.5 °F /  28.6 °C 60.0 °F /  15.6 °C 30.02in /  1016.5hPa Calm   3.0mph /  4.8km/h 45% 0.00in /  0mm
18:05 82.7 °F /  28.2 °C 56.6 °F /  13.7 °C 30.02in /  1016.5hPa Calm   3.0mph /  4.8km/h 41% 0.00in /  0mm
18:10 82.3 °F /  27.9 °C 58.9 °F /  14.9 °C 30.02in /  1016.5hPa Calm   3.0mph /  4.8km/h 45% 0.00in /  0mm
18:15 82.4 °F /  28 °C 60.2 °F /  15.7 °C 30.02in /  1016.5hPa Calm   2.0mph /  3.2km/h 47% 0.00in /  0mm
18:20 82.5 °F /  28.1 °C 57.1 °F /  13.9 °C 30.02in /  1016.5hPa Calm   3.0mph /  4.8km/h 42% 0.00in /  0mm
18:25 82.6 °F /  28.1 °C 55.9 °F /  13.3 °C 30.02in /  1016.5hPa SSW 1.0mph /  1.6km/h 4.0mph /  6.4km/h 40% 0.00in /  0mm
18:30 82.4 °F /  28 °C 59.0 °F /  15 °C 30.01in /  1016.1hPa Calm   4.0mph /  6.4km/h 45% 0.00in /  0mm
18:35 82.2 °F /  27.9 °C 58.1 °F /  14.5 °C 30.01in /  1016.1hPa SSW 1.0mph /  1.6km/h 5.0mph /  8km/h 44% 0.00in /  0mm
18:40 82.2 °F /  27.9 °C 58.1 °F /  14.5 °C 30.01in /  1016.1hPa Calm   5.0mph /  8km/h 44% 0.00in /  0mm
18:45 82.2 °F /  27.9 °C 60.0 °F /  15.6 °C 30.01in /  1016.1hPa Calm   4.0mph /  6.4km/h 47% 0.00in /  0mm
18:50 82.1 °F /  27.8 °C 60.5 °F /  15.8 °C 30.01in /  1016.1hPa Calm   3.0mph /  4.8km/h 48% 0.00in /  0mm
18:55 82.1 °F /  27.8 °C 63.8 °F /  17.7 °C 30.02in /  1016.5hPa Calm   1.0mph /  1.6km/h 54% 0.00in /  0mm
19:00 81.7 °F /  27.6 °C 60.7 °F /  15.9 °C 30.01in /  1016.1hPa Calm   2.0mph /  3.2km/h 49% 0.00in /  0mm
19:10 80.9 °F /  27.2 °C 61.7 °F /  16.5 °C 30.01in /  1016.1hPa Calm     52% 0.00in /  0mm
19:15 80.5 °F /  26.9 °C 63.4 °F /  17.4 °C 30.01in /  1016.1hPa Calm     56% 0.00in /  0mm
19:20 79.7 °F /  26.5 °C 64.6 °F /  18.1 °C 30.01in /  1016.1hPa Calm     60% 0.00in /  0mm
19:25 78.7 °F /  25.9 °C 63.7 °F /  17.6 °C 30.01in /  1016.1hPa Calm     60% 0.00in /  0mm
19:30 78.0 °F /  25.6 °C 63.5 °F /  17.5 °C 30.01in /  1016.1hPa Calm     61% 0.00in /  0mm
19:35 77.4 °F /  25.2 °C 65.6 °F /  18.7 °C 30.01in /  1016.1hPa Calm     67% 0.00in /  0mm
19:40 76.7 °F /  24.8 °C 64.1 °F /  17.8 °C 30.01in /  1016.1hPa Calm     65% 0.00in /  0mm
19:45 76.1 °F /  24.5 °C 63.5 °F /  17.5 °C 30.01in /  1016.1hPa Calm     65% 0.00in /  0mm
19:50 75.4 °F /  24.1 °C 63.7 °F /  17.6 °C 30.01in /  1016.1hPa Calm     67% 0.00in /  0mm
19:55 74.7 °F /  23.7 °C 64.3 °F /  17.9 °C 30.01in /  1016.1hPa Calm     70% 0.00in /  0mm
20:00 73.6 °F /  23.1 °C 62.4 °F /  16.9 °C 30.01in /  1016.1hPa Calm     68% 0.00in /  0mm
20:10 71.5 °F /  21.9 °C 62.4 °F /  16.9 °C 30.01in /  1016.1hPa Calm     73% 0.00in /  0mm
20:15 70.4 °F /  21.3 °C 61.3 °F /  16.3 °C 30.01in /  1016.1hPa Calm     73% 0.00in /  0mm
20:20 69.5 °F /  20.8 °C 60.5 °F /  15.8 °C 30.01in /  1016.1hPa Calm     73% 0.00in /  0mm
20:25 68.3 °F /  20.2 °C 59.7 °F /  15.4 °C 30.01in /  1016.1hPa Calm     74% 0.00in /  0mm
20:30 67.4 °F /  19.7 °C 59.2 °F /  15.1 °C 30.01in /  1016.1hPa Calm     75% 0.00in /  0mm
20:35 66.5 °F /  19.2 °C 58.3 °F /  14.6 °C 30.01in /  1016.1hPa Calm     75% 0.00in /  0mm
20:40 65.9 °F /  18.8 °C 58.5 °F /  14.7 °C 30.01in /  1016.1hPa Calm     77% 0.00in /  0mm
20:45 65.1 °F /  18.4 °C 57.7 °F /  14.3 °C 30.01in /  1016.1hPa Calm     77% 0.00in /  0mm
20:50 64.4 °F /  18 °C 57.4 °F /  14.1 °C 30.01in /  1016.1hPa Calm     78% 0.00in /  0mm
20:55 63.9 °F /  17.7 °C 56.9 °F /  13.8 °C 30.01in /  1016.1hPa Calm     78% 0.00in /  0mm
21:00 63.5 °F /  17.5 °C 57.2 °F /  14 °C 30.02in /  1016.5hPa Calm     80% 0.00in /  0mm
21:05 63.1 °F /  17.3 °C 56.8 °F /  13.8 °C 30.02in /  1016.5hPa Calm     80% 0.00in /  0mm
21:15 62.3 °F /  16.8 °C 56.4 °F /  13.6 °C 30.02in /  1016.5hPa Calm     81% 0.00in /  0mm
21:20 62.0 °F /  16.7 °C 56.4 °F /  13.6 °C 30.02in /  1016.5hPa Calm     82% 0.00in /  0mm
21:25 61.7 °F /  16.5 °C 56.2 °F /  13.4 °C 30.02in /  1016.5hPa Calm     82% 0.00in /  0mm
21:30 61.4 °F /  16.3 °C 55.9 °F /  13.3 °C 30.02in /  1016.5hPa Calm     82% 0.00in /  0mm
21:35 61.3 °F /  16.3 °C 56.1 °F /  13.4 °C 30.02in /  1016.5hPa Calm     83% 0.00in /  0mm
21:40 61.1 °F /  16.2 °C 55.9 °F /  13.3 °C 30.02in /  1016.5hPa Calm     83% 0.00in /  0mm
21:50 60.9 °F /  16.1 °C 55.7 °F /  13.2 °C 30.02in /  1016.5hPa Calm     83% 0.00in /  0mm
21:55 60.8 °F /  16 °C 55.9 °F /  13.3 °C 30.02in /  1016.5hPa Calm     84% 0.00in /  0mm
22:00 60.7 °F /  15.9 °C 55.8 °F /  13.2 °C 30.02in /  1016.5hPa Calm     84% 0.00in /  0mm
22:05 60.5 °F /  15.8 °C 55.3 °F /  12.9 °C 30.02in /  1016.5hPa Calm     83% 0.00in /  0mm
22:10 60.5 °F /  15.8 °C 55.6 °F /  13.1 °C 30.02in /  1016.5hPa Calm     84% 0.00in /  0mm
22:15 60.4 °F /  15.8 °C 55.5 °F /  13.1 °C 30.02in /  1016.5hPa Calm     84% 0.00in /  0mm
22:20 60.2 °F /  15.7 °C 55.4 °F /  13 °C 30.02in /  1016.5hPa Calm     84% 0.00in /  0mm
22:25 60.1 °F /  15.6 °C 55.3 °F /  12.9 °C 30.02in /  1016.5hPa Calm     84% 0.00in /  0mm
22:30 60.0 °F /  15.6 °C 55.2 °F /  12.9 °C 30.02in /  1016.5hPa Calm     84% 0.00in /  0mm
22:35 59.9 °F /  15.5 °C 55.4 °F /  13 °C 30.02in /  1016.5hPa Calm     85% 0.00in /  0mm
22:40 59.9 °F /  15.5 °C 55.1 °F /  12.8 °C 30.02in /  1016.5hPa Calm     84% 0.00in /  0mm
22:45 59.9 °F /  15.5 °C 54.7 °F /  12.6 °C 30.02in /  1016.5hPa Calm     83% 0.00in /  0mm
22:50 60.3 °F /  15.7 °C 55.4 °F /  13 °C 30.02in /  1016.5hPa Calm     84% 0.00in /  0mm
22:55 60.3 °F /  15.7 °C 55.4 °F /  13 °C 30.02in /  1016.5hPa Calm     84% 0.00in /  0mm
23:00 60.5 °F /  15.8 °C 55.6 °F /  13.1 °C 30.02in /  1016.5hPa Calm     84% 0.00in /  0mm
23:05 60.8 °F /  16 °C 56.3 °F /  13.5 °C 30.02in /  1016.5hPa Calm     85% 0.00in /  0mm
23:10 60.9 °F /  16.1 °C 56.0 °F /  13.3 °C 30.02in /  1016.5hPa Calm     84% 0.00in /  0mm
23:15 60.8 °F /  16 °C 55.6 °F /  13.1 °C 30.02in /  1016.5hPa Calm     83% 0.00in /  0mm
23:20 61.0 °F /  16.1 °C 55.8 °F /  13.2 °C 30.02in /  1016.5hPa SSW 1.0mph /  1.6km/h 5.0mph /  8km/h 83% 0.00in /  0mm
23:25 61.3 °F /  16.3 °C 55.8 °F /  13.2 °C 30.02in /  1016.5hPa SSW 1.0mph /  1.6km/h 5.0mph /  8km/h 82% 0.00in /  0mm
23:30 61.8 °F /  16.6 °C 56.3 °F /  13.5 °C 30.02in /  1016.5hPa Calm   4.0mph /  6.4km/h 82% 0.00in /  0mm
23:40 62.2 °F /  16.8 °C 55.6 °F /  13.1 °C 30.02in /  1016.5hPa Calm   4.0mph /  6.4km/h 79% 0.00in /  0mm
23:45 62.3 °F /  16.8 °C 55.7 °F /  13.2 °C 30.02in /  1016.5hPa Calm   1.0mph /  1.6km/h 79% 0.00in /  0mm
23:50 62.4 °F /  16.9 °C 55.8 °F /  13.2 °C 30.02in /  1016.5hPa Calm   1.0mph /  1.6km/h 79% 0.00in /  0mm
23:55 62.3 °F /  16.8 °C 56.1 °F /  13.4 °C 30.02in /  1016.5hPa Calm   1.0mph /  1.6km/h 80% 0.00in /  0mm
Westford Weather
Compliments of Weather Underground

 
 
Current Radar Loop:

Copyright © WestfordWeather.net 2007-2014. All rights reserved.